sensor_id;sensor_type;location;lat;lon;timestamp;P1;durP1;ratioP1;P2;durP2;ratioP2
19521;SDS011;9905;52.126;5.596;2023-03-01T00:00:51;8.07;;;7.40;;
19521;SDS011;9905;52.126;5.596;2023-03-01T00:03:17;12.47;;;7.13;;
19521;SDS011;9905;52.126;5.596;2023-03-01T00:05:44;8.03;;;7.27;;
19521;SDS011;9905;52.126;5.596;2023-03-01T00:08:13;10.60;;;6.97;;
19521;SDS011;9905;52.126;5.596;2023-03-01T00:10:39;7.53;;;6.90;;
19521;SDS011;9905;52.126;5.596;2023-03-01T00:13:06;8.73;;;7.27;;
19521;SDS011;9905;52.126;5.596;2023-03-01T00:15:33;10.30;;;8.20;;
19521;SDS011;9905;52.126;5.596;2023-03-01T00:18:03;15.63;;;8.77;;
19521;SDS011;9905;52.126;5.596;2023-03-01T00:20:30;10.40;;;8.40;;
19521;SDS011;9905;52.126;5.596;2023-03-01T00:22:57;13.07;;;8.17;;
19521;SDS011;9905;52.126;5.596;2023-03-01T00:25:25;13.30;;;8.87;;
19521;SDS011;9905;52.126;5.596;2023-03-01T00:27:51;12.20;;;8.37;;
19521;SDS011;9905;52.126;5.596;2023-03-01T00:30:18;13.77;;;8.63;;
19521;SDS011;9905;52.126;5.596;2023-03-01T00:32:45;10.60;;;7.83;;
19521;SDS011;9905;52.126;5.596;2023-03-01T00:35:12;10.63;;;7.93;;
19521;SDS011;9905;52.126;5.596;2023-03-01T00:37:39;9.40;;;8.00;;
19521;SDS011;9905;52.126;5.596;2023-03-01T00:40:07;17.30;;;8.70;;
19521;SDS011;9905;52.126;5.596;2023-03-01T00:42:36;7.60;;;7.00;;
19521;SDS011;9905;52.126;5.596;2023-03-01T00:45:03;11.07;;;7.90;;
19521;SDS011;9905;52.126;5.596;2023-03-01T00:47:31;8.53;;;7.40;;
19521;SDS011;9905;52.126;5.596;2023-03-01T00:49:57;8.90;;;7.97;;
19521;SDS011;9905;52.126;5.596;2023-03-01T00:52:24;9.37;;;7.20;;
19521;SDS011;9905;52.126;5.596;2023-03-01T00:54:52;8.77;;;8.00;;
19521;SDS011;9905;52.126;5.596;2023-03-01T00:57:18;8.70;;;7.30;;
19521;SDS011;9905;52.126;5.596;2023-03-01T00:59:46;9.90;;;7.90;;
19521;SDS011;9905;52.126;5.596;2023-03-01T01:02:13;7.43;;;6.83;;
19521;SDS011;9905;52.126;5.596;2023-03-01T01:04:40;9.30;;;7.70;;
19521;SDS011;9905;52.126;5.596;2023-03-01T01:07:07;7.57;;;7.03;;
19521;SDS011;9905;52.126;5.596;2023-03-01T01:09:33;8.40;;;7.57;;
19521;SDS011;9905;52.126;5.596;2023-03-01T01:12:00;7.93;;;7.23;;
19521;SDS011;9905;52.126;5.596;2023-03-01T01:14:27;11.77;;;7.80;;
19521;SDS011;9905;52.126;5.596;2023-03-01T01:16:55;8.30;;;7.60;;
19521;SDS011;9905;52.126;5.596;2023-03-01T01:19:22;10.50;;;7.87;;
19521;SDS011;9905;52.126;5.596;2023-03-01T01:21:50;8.10;;;7.20;;
19521;SDS011;9905;52.126;5.596;2023-03-01T01:24:18;7.40;;;6.70;;
19521;SDS011;9905;52.126;5.596;2023-03-01T01:26:45;8.70;;;7.80;;
19521;SDS011;9905;52.126;5.596;2023-03-01T01:29:12;8.17;;;7.23;;
19521;SDS011;9905;52.126;5.596;2023-03-01T01:31:40;8.40;;;7.50;;
19521;SDS011;9905;52.126;5.596;2023-03-01T01:34:15;9.00;;;7.70;;
19521;SDS011;9905;52.126;5.596;2023-03-01T01:36:43;9.97;;;7.17;;
19521;SDS011;9905;52.126;5.596;2023-03-01T01:39:10;8.43;;;7.73;;
19521;SDS011;9905;52.126;5.596;2023-03-01T01:41:38;7.47;;;6.93;;
19521;SDS011;9905;52.126;5.596;2023-03-01T01:44:11;11.93;;;7.97;;
19521;SDS011;9905;52.126;5.596;2023-03-01T01:46:44;10.10;;;7.10;;
19521;SDS011;9905;52.126;5.596;2023-03-01T01:49:22;7.80;;;7.10;;
19521;SDS011;9905;52.126;5.596;2023-03-01T01:51:55;8.90;;;7.20;;
19521;SDS011;9905;52.126;5.596;2023-03-01T01:54:26;8.87;;;8.07;;
19521;SDS011;9905;52.126;5.596;2023-03-01T01:56:58;7.30;;;6.70;;
19521;SDS011;9905;52.126;5.596;2023-03-01T01:59:28;7.47;;;6.77;;
19521;SDS011;9905;52.126;5.596;2023-03-01T02:01:58;11.97;;;7.67;;
19521;SDS011;9905;52.126;5.596;2023-03-01T02:04:28;7.70;;;7.03;;
19521;SDS011;9905;52.126;5.596;2023-03-01T02:06:58;7.73;;;7.00;;
19521;SDS011;9905;52.126;5.596;2023-03-01T02:09:29;8.33;;;7.53;;
19521;SDS011;9905;52.126;5.596;2023-03-01T02:11:58;9.07;;;8.23;;
19521;SDS011;9905;52.126;5.596;2023-03-01T02:14:25;7.60;;;7.03;;
19521;SDS011;9905;52.126;5.596;2023-03-01T02:16:52;8.37;;;7.40;;
19521;SDS011;9905;52.126;5.596;2023-03-01T02:19:21;11.07;;;7.97;;
19521;SDS011;9905;52.126;5.596;2023-03-01T02:22:00;8.37;;;7.67;;
19521;SDS011;9905;52.126;5.596;2023-03-01T02:24:34;9.30;;;7.87;;
19521;SDS011;9905;52.126;5.596;2023-03-01T02:27:12;8.13;;;7.47;;
19521;SDS011;9905;52.126;5.596;2023-03-01T02:29:41;7.90;;;7.20;;
19521;SDS011;9905;52.126;5.596;2023-03-01T02:32:09;7.67;;;7.07;;
19521;SDS011;9905;52.126;5.596;2023-03-01T02:34:38;8.90;;;7.37;;
19521;SDS011;9905;52.126;5.596;2023-03-01T02:37:06;7.23;;;6.73;;
19521;SDS011;9905;52.126;5.596;2023-03-01T02:39:38;7.17;;;6.43;;
19521;SDS011;9905;52.126;5.596;2023-03-01T02:42:09;7.37;;;6.77;;
19521;SDS011;9905;52.126;5.596;2023-03-01T02:44:39;6.47;;;5.93;;
19521;SDS011;9905;52.126;5.596;2023-03-01T02:47:07;9.57;;;8.20;;
19521;SDS011;9905;52.126;5.596;2023-03-01T02:49:34;7.83;;;7.23;;
19521;SDS011;9905;52.126;5.596;2023-03-01T02:52:18;8.77;;;7.87;;
19521;SDS011;9905;52.126;5.596;2023-03-01T02:55:00;7.53;;;7.03;;
19521;SDS011;9905;52.126;5.596;2023-03-01T02:57:30;7.27;;;6.67;;
19521;SDS011;9905;52.126;5.596;2023-03-01T03:00:02;8.13;;;7.30;;
19521;SDS011;9905;52.126;5.596;2023-03-01T03:02:33;7.20;;;6.60;;
19521;SDS011;9905;52.126;5.596;2023-03-01T03:05:04;7.87;;;6.47;;
19521;SDS011;9905;52.126;5.596;2023-03-01T03:07:33;7.97;;;6.90;;
19521;SDS011;9905;52.126;5.596;2023-03-01T03:10:01;7.90;;;7.20;;
19521;SDS011;9905;52.126;5.596;2023-03-01T03:12:29;7.47;;;6.63;;
19521;SDS011;9905;52.126;5.596;2023-03-01T03:14:56;7.53;;;6.83;;
19521;SDS011;9905;52.126;5.596;2023-03-01T03:17:24;6.67;;;6.27;;
19521;SDS011;9905;52.126;5.596;2023-03-01T03:19:51;7.83;;;7.17;;
19521;SDS011;9905;52.126;5.596;2023-03-01T03:22:18;9.13;;;7.80;;
19521;SDS011;9905;52.126;5.596;2023-03-01T03:24:45;7.57;;;6.97;;
19521;SDS011;9905;52.126;5.596;2023-03-01T03:27:11;7.13;;;6.63;;
19521;SDS011;9905;52.126;5.596;2023-03-01T03:29:38;7.37;;;6.87;;
19521;SDS011;9905;52.126;5.596;2023-03-01T03:32:05;8.30;;;7.60;;
19521;SDS011;9905;52.126;5.596;2023-03-01T03:34:33;7.80;;;7.20;;
19521;SDS011;9905;52.126;5.596;2023-03-01T03:37:00;8.03;;;7.47;;
19521;SDS011;9905;52.126;5.596;2023-03-01T03:39:27;9.10;;;8.00;;
19521;SDS011;9905;52.126;5.596;2023-03-01T03:41:53;7.77;;;7.07;;
19521;SDS011;9905;52.126;5.596;2023-03-01T03:44:20;8.43;;;7.63;;
19521;SDS011;9905;52.126;5.596;2023-03-01T03:46:47;7.67;;;6.97;;
19521;SDS011;9905;52.126;5.596;2023-03-01T03:49:14;8.70;;;7.97;;
19521;SDS011;9905;52.126;5.596;2023-03-01T03:51:42;7.77;;;7.07;;
19521;SDS011;9905;52.126;5.596;2023-03-01T03:54:11;8.47;;;7.23;;
19521;SDS011;9905;52.126;5.596;2023-03-01T03:56:38;11.60;;;7.43;;
19521;SDS011;9905;52.126;5.596;2023-03-01T03:59:05;8.13;;;7.23;;
19521;SDS011;9905;52.126;5.596;2023-03-01T04:01:32;9.73;;;8.73;;
19521;SDS011;9905;52.126;5.596;2023-03-01T04:03:58;8.97;;;8.07;;
19521;SDS011;9905;52.126;5.596;2023-03-01T04:06:29;8.63;;;7.93;;
19521;SDS011;9905;52.126;5.596;2023-03-01T04:08:57;7.80;;;7.00;;
19521;SDS011;9905;52.126;5.596;2023-03-01T04:11:27;12.53;;;8.03;;
19521;SDS011;9905;52.126;5.596;2023-03-01T04:13:55;8.33;;;7.53;;
19521;SDS011;9905;52.126;5.596;2023-03-01T04:16:23;8.30;;;7.63;;
19521;SDS011;9905;52.126;5.596;2023-03-01T04:18:50;8.50;;;7.70;;
19521;SDS011;9905;52.126;5.596;2023-03-01T04:21:17;10.07;;;7.53;;
19521;SDS011;9905;52.126;5.596;2023-03-01T04:23:45;8.13;;;7.53;;
19521;SDS011;9905;52.126;5.596;2023-03-01T04:26:13;8.40;;;7.60;;
19521;SDS011;9905;52.126;5.596;2023-03-01T04:28:40;9.17;;;8.30;;
19521;SDS011;9905;52.126;5.596;2023-03-01T04:31:11;8.90;;;8.10;;
19521;SDS011;9905;52.126;5.596;2023-03-01T04:33:40;9.27;;;7.70;;
19521;SDS011;9905;52.126;5.596;2023-03-01T04:36:09;7.87;;;7.27;;
19521;SDS011;9905;52.126;5.596;2023-03-01T04:38:37;9.93;;;7.87;;
19521;SDS011;9905;52.126;5.596;2023-03-01T04:41:05;8.17;;;7.57;;
19521;SDS011;9905;52.126;5.596;2023-03-01T04:43:34;8.83;;;8.00;;
19521;SDS011;9905;52.126;5.596;2023-03-01T04:46:01;8.40;;;7.57;;
19521;SDS011;9905;52.126;5.596;2023-03-01T04:48:29;8.93;;;8.03;;
19521;SDS011;9905;52.126;5.596;2023-03-01T04:50:57;8.17;;;7.27;;
19521;SDS011;9905;52.126;5.596;2023-03-01T04:53:25;8.30;;;7.60;;
19521;SDS011;9905;52.126;5.596;2023-03-01T04:55:52;7.47;;;6.93;;
19521;SDS011;9905;52.126;5.596;2023-03-01T04:58:20;7.67;;;7.17;;
19521;SDS011;9905;52.126;5.596;2023-03-01T05:00:48;7.60;;;7.10;;
19521;SDS011;9905;52.126;5.596;2023-03-01T05:03:14;8.00;;;7.17;;
19521;SDS011;9905;52.126;5.596;2023-03-01T05:05:43;7.63;;;6.93;;
19521;SDS011;9905;52.126;5.596;2023-03-01T05:08:11;7.93;;;7.13;;
19521;SDS011;9905;52.126;5.596;2023-03-01T05:10:42;8.67;;;7.60;;
19521;SDS011;9905;52.126;5.596;2023-03-01T05:13:12;7.53;;;6.90;;
19521;SDS011;9905;52.126;5.596;2023-03-01T05:15:40;8.10;;;7.60;;
19521;SDS011;9905;52.126;5.596;2023-03-01T05:18:09;7.43;;;6.93;;
19521;SDS011;9905;52.126;5.596;2023-03-01T05:20:36;7.57;;;6.83;;
19521;SDS011;9905;52.126;5.596;2023-03-01T05:23:04;7.70;;;7.00;;
19521;SDS011;9905;52.126;5.596;2023-03-01T05:25:31;7.57;;;7.00;;
19521;SDS011;9905;52.126;5.596;2023-03-01T05:27:59;7.73;;;7.23;;
19521;SDS011;9905;52.126;5.596;2023-03-01T05:30:29;8.47;;;7.67;;
19521;SDS011;9905;52.126;5.596;2023-03-01T05:32:56;7.20;;;6.70;;
19521;SDS011;9905;52.126;5.596;2023-03-01T05:35:24;8.50;;;7.73;;
19521;SDS011;9905;52.126;5.596;2023-03-01T05:37:51;9.60;;;7.83;;
19521;SDS011;9905;52.126;5.596;2023-03-01T05:40:19;8.50;;;7.83;;
19521;SDS011;9905;52.126;5.596;2023-03-01T05:42:48;7.20;;;6.63;;
19521;SDS011;9905;52.126;5.596;2023-03-01T05:45:16;8.67;;;7.93;;
19521;SDS011;9905;52.126;5.596;2023-03-01T05:47:44;7.83;;;7.33;;
19521;SDS011;9905;52.126;5.596;2023-03-01T05:50:13;7.83;;;7.07;;
19521;SDS011;9905;52.126;5.596;2023-03-01T05:52:45;7.53;;;6.93;;
19521;SDS011;9905;52.126;5.596;2023-03-01T05:55:13;8.60;;;7.90;;
19521;SDS011;9905;52.126;5.596;2023-03-01T05:57:40;11.63;;;7.60;;
19521;SDS011;9905;52.126;5.596;2023-03-01T06:00:08;8.70;;;7.90;;
19521;SDS011;9905;52.126;5.596;2023-03-01T06:02:35;8.73;;;7.47;;
19521;SDS011;9905;52.126;5.596;2023-03-01T06:05:03;8.50;;;7.90;;
19521;SDS011;9905;52.126;5.596;2023-03-01T06:07:30;8.03;;;7.33;;
19521;SDS011;9905;52.126;5.596;2023-03-01T06:09:59;8.13;;;7.43;;
19521;SDS011;9905;52.126;5.596;2023-03-01T06:12:25;8.43;;;7.73;;
19521;SDS011;9905;52.126;5.596;2023-03-01T06:14:52;10.27;;;9.33;;
19521;SDS011;9905;52.126;5.596;2023-03-01T06:17:19;9.10;;;8.33;;
19521;SDS011;9905;52.126;5.596;2023-03-01T06:19:46;9.30;;;8.30;;
19521;SDS011;9905;52.126;5.596;2023-03-01T06:22:13;8.87;;;8.07;;
19521;SDS011;9905;52.126;5.596;2023-03-01T06:24:39;8.83;;;8.13;;
19521;SDS011;9905;52.126;5.596;2023-03-01T06:27:07;8.20;;;7.50;;
19521;SDS011;9905;52.126;5.596;2023-03-01T06:29:34;10.00;;;7.50;;
19521;SDS011;9905;52.126;5.596;2023-03-01T06:32:01;7.70;;;7.10;;
19521;SDS011;9905;52.126;5.596;2023-03-01T06:34:29;9.03;;;7.33;;
19521;SDS011;9905;52.126;5.596;2023-03-01T06:36:56;12.83;;;8.33;;
19521;SDS011;9905;52.126;5.596;2023-03-01T06:39:22;8.53;;;7.83;;
19521;SDS011;9905;52.126;5.596;2023-03-01T06:41:49;9.00;;;8.20;;
19521;SDS011;9905;52.126;5.596;2023-03-01T06:44:17;11.07;;;7.90;;
19521;SDS011;9905;52.126;5.596;2023-03-01T06:46:44;11.33;;;8.73;;
19521;SDS011;9905;52.126;5.596;2023-03-01T06:49:11;11.90;;;8.77;;
19521;SDS011;9905;52.126;5.596;2023-03-01T06:51:38;12.37;;;9.23;;
19521;SDS011;9905;52.126;5.596;2023-03-01T06:54:05;14.67;;;9.13;;
19521;SDS011;9905;52.126;5.596;2023-03-01T06:56:32;11.57;;;9.77;;
19521;SDS011;9905;52.126;5.596;2023-03-01T06:58:59;11.30;;;9.73;;
19521;SDS011;9905;52.126;5.596;2023-03-01T07:01:27;11.37;;;9.00;;
19521;SDS011;9905;52.126;5.596;2023-03-01T07:03:54;8.80;;;7.83;;
19521;SDS011;9905;52.126;5.596;2023-03-01T07:06:20;12.23;;;9.33;;
19521;SDS011;9905;52.126;5.596;2023-03-01T07:08:47;9.73;;;8.57;;
19521;SDS011;9905;52.126;5.596;2023-03-01T07:11:14;10.23;;;8.97;;
19521;SDS011;9905;52.126;5.596;2023-03-01T07:13:41;9.50;;;8.37;;
19521;SDS011;9905;52.126;5.596;2023-03-01T07:16:08;10.70;;;9.10;;
19521;SDS011;9905;52.126;5.596;2023-03-01T07:18:36;14.57;;;8.53;;
19521;SDS011;9905;52.126;5.596;2023-03-01T07:21:03;10.83;;;8.73;;
19521;SDS011;9905;52.126;5.596;2023-03-01T07:23:31;15.10;;;10.07;;
19521;SDS011;9905;52.126;5.596;2023-03-01T07:25:58;13.97;;;10.13;;
19521;SDS011;9905;52.126;5.596;2023-03-01T07:28:25;10.17;;;9.10;;
19521;SDS011;9905;52.126;5.596;2023-03-01T07:30:53;12.67;;;9.40;;
19521;SDS011;9905;52.126;5.596;2023-03-01T07:33:20;11.07;;;9.13;;
19521;SDS011;9905;52.126;5.596;2023-03-01T07:35:48;13.17;;;10.10;;
19521;SDS011;9905;52.126;5.596;2023-03-01T07:38:22;17.40;;;10.20;;
19521;SDS011;9905;52.126;5.596;2023-03-01T07:40:49;11.80;;;9.43;;
19521;SDS011;9905;52.126;5.596;2023-03-01T07:43:16;13.50;;;9.17;;
19521;SDS011;9905;52.126;5.596;2023-03-01T07:45:43;12.33;;;10.43;;
19521;SDS011;9905;52.126;5.596;2023-03-01T07:48:09;11.83;;;10.20;;
19521;SDS011;9905;52.126;5.596;2023-03-01T07:50:36;10.90;;;9.83;;
19521;SDS011;9905;52.126;5.596;2023-03-01T07:53:04;11.57;;;9.87;;
19521;SDS011;9905;52.126;5.596;2023-03-01T07:55:31;10.30;;;9.10;;
19521;SDS011;9905;52.126;5.596;2023-03-01T07:57:58;10.37;;;9.30;;
19521;SDS011;9905;52.126;5.596;2023-03-01T08:00:25;11.83;;;9.87;;
19521;SDS011;9905;52.126;5.596;2023-03-01T08:02:51;10.37;;;9.37;;
19521;SDS011;9905;52.126;5.596;2023-03-01T08:05:18;13.17;;;10.40;;
19521;SDS011;9905;52.126;5.596;2023-03-01T08:07:47;13.63;;;9.77;;
19521;SDS011;9905;52.126;5.596;2023-03-01T08:10:15;10.87;;;9.87;;
19521;SDS011;9905;52.126;5.596;2023-03-01T08:12:42;11.00;;;9.90;;
19521;SDS011;9905;52.126;5.596;2023-03-01T08:15:09;10.60;;;9.70;;
19521;SDS011;9905;52.126;5.596;2023-03-01T08:17:36;10.53;;;9.63;;
19521;SDS011;9905;52.126;5.596;2023-03-01T08:20:03;10.23;;;9.23;;
19521;SDS011;9905;52.126;5.596;2023-03-01T08:22:32;15.03;;;9.73;;
19521;SDS011;9905;52.126;5.596;2023-03-01T08:24:58;10.47;;;9.47;;
19521;SDS011;9905;52.126;5.596;2023-03-01T08:27:27;9.77;;;8.77;;
19521;SDS011;9905;52.126;5.596;2023-03-01T08:29:53;9.50;;;8.70;;
19521;SDS011;9905;52.126;5.596;2023-03-01T08:32:20;12.00;;;9.40;;
19521;SDS011;9905;52.126;5.596;2023-03-01T08:34:47;14.70;;;8.73;;
19521;SDS011;9905;52.126;5.596;2023-03-01T08:37:14;9.87;;;8.37;;
19521;SDS011;9905;52.126;5.596;2023-03-01T08:39:40;9.90;;;9.10;;
19521;SDS011;9905;52.126;5.596;2023-03-01T08:42:07;10.33;;;9.40;;
19521;SDS011;9905;52.126;5.596;2023-03-01T08:44:35;9.10;;;8.40;;
19521;SDS011;9905;52.126;5.596;2023-03-01T08:47:02;9.27;;;8.07;;
19521;SDS011;9905;52.126;5.596;2023-03-01T08:49:29;10.27;;;9.23;;
19521;SDS011;9905;52.126;5.596;2023-03-01T08:51:57;10.73;;;9.63;;
19521;SDS011;9905;52.126;5.596;2023-03-01T08:54:24;12.27;;;8.77;;
19521;SDS011;9905;52.126;5.596;2023-03-01T08:56:51;10.33;;;9.30;;
19521;SDS011;9905;52.126;5.596;2023-03-01T08:59:17;10.27;;;9.07;;
19521;SDS011;9905;52.126;5.596;2023-03-01T09:01:46;10.03;;;9.17;;
19521;SDS011;9905;52.126;5.596;2023-03-01T09:04:12;10.40;;;8.80;;
19521;SDS011;9905;52.126;5.596;2023-03-01T09:06:40;10.83;;;8.27;;
19521;SDS011;9905;52.126;5.596;2023-03-01T09:09:10;9.37;;;7.60;;
19521;SDS011;9905;52.126;5.596;2023-03-01T09:11:41;8.80;;;7.93;;
19521;SDS011;9905;52.126;5.596;2023-03-01T09:14:08;10.37;;;7.17;;
19521;SDS011;9905;52.126;5.596;2023-03-01T09:16:34;7.97;;;7.37;;
19521;SDS011;9905;52.126;5.596;2023-03-01T09:19:03;7.73;;;7.10;;
19521;SDS011;9905;52.126;5.596;2023-03-01T09:21:30;9.73;;;7.13;;
19521;SDS011;9905;52.126;5.596;2023-03-01T09:23:57;8.10;;;7.43;;
19521;SDS011;9905;52.126;5.596;2023-03-01T09:26:24;8.00;;;7.43;;
19521;SDS011;9905;52.126;5.596;2023-03-01T09:28:52;6.72;;;6.22;;
19521;SDS011;9905;52.126;5.596;2023-03-01T09:31:21;6.40;;;5.90;;
19521;SDS011;9905;52.126;5.596;2023-03-01T09:33:49;6.70;;;6.20;;
19521;SDS011;9905;52.126;5.596;2023-03-01T09:36:19;6.43;;;5.82;;
19521;SDS011;9905;52.126;5.596;2023-03-01T09:38:48;5.63;;;5.25;;
19521;SDS011;9905;52.126;5.596;2023-03-01T09:41:22;5.68;;;5.25;;
19521;SDS011;9905;52.126;5.596;2023-03-01T09:44:03;5.80;;;5.30;;
19521;SDS011;9905;52.126;5.596;2023-03-01T09:46:38;6.40;;;5.85;;
19521;SDS011;9905;52.126;5.596;2023-03-01T09:49:09;6.13;;;5.72;;
19521;SDS011;9905;52.126;5.596;2023-03-01T09:51:43;6.05;;;5.35;;
19521;SDS011;9905;52.126;5.596;2023-03-01T09:54:19;7.35;;;5.63;;
19521;SDS011;9905;52.126;5.596;2023-03-01T09:56:47;6.15;;;5.75;;
19521;SDS011;9905;52.126;5.596;2023-03-01T09:59:25;5.20;;;4.80;;
19521;SDS011;9905;52.126;5.596;2023-03-01T10:01:57;5.10;;;4.70;;
19521;SDS011;9905;52.126;5.596;2023-03-01T10:04:34;4.85;;;4.45;;
19521;SDS011;9905;52.126;5.596;2023-03-01T10:07:20;4.25;;;4.05;;
19521;SDS011;9905;52.126;5.596;2023-03-01T10:09:54;4.47;;;4.18;;
19521;SDS011;9905;52.126;5.596;2023-03-01T10:12:23;3.72;;;3.53;;
19521;SDS011;9905;52.126;5.596;2023-03-01T10:14:54;4.25;;;3.95;;
19521;SDS011;9905;52.126;5.596;2023-03-01T10:17:28;4.15;;;3.85;;
19521;SDS011;9905;52.126;5.596;2023-03-01T10:20:05;4.97;;;4.13;;
19521;SDS011;9905;52.126;5.596;2023-03-01T10:22:50;6.07;;;4.13;;
19521;SDS011;9905;52.126;5.596;2023-03-01T10:25:20;4.95;;;3.90;;
19521;SDS011;9905;52.126;5.596;2023-03-01T10:28:02;4.20;;;4.00;;
19521;SDS011;9905;52.126;5.596;2023-03-01T10:30:37;4.00;;;3.78;;
19521;SDS011;9905;52.126;5.596;2023-03-01T10:33:08;4.28;;;3.97;;
19521;SDS011;9905;52.126;5.596;2023-03-01T10:35:43;4.15;;;3.95;;
19521;SDS011;9905;52.126;5.596;2023-03-01T10:38:11;3.65;;;3.45;;
19521;SDS011;9905;52.126;5.596;2023-03-01T10:40:49;4.20;;;4.00;;
19521;SDS011;9905;52.126;5.596;2023-03-01T10:43:17;3.78;;;3.47;;
19521;SDS011;9905;52.126;5.596;2023-03-01T10:45:44;3.95;;;3.67;;
19521;SDS011;9905;52.126;5.596;2023-03-01T10:48:12;4.20;;;3.90;;
19521;SDS011;9905;52.126;5.596;2023-03-01T10:50:41;3.67;;;3.45;;
19521;SDS011;9905;52.126;5.596;2023-03-01T10:53:22;3.35;;;3.15;;
19521;SDS011;9905;52.126;5.596;2023-03-01T10:55:58;3.40;;;3.20;;
19521;SDS011;9905;52.126;5.596;2023-03-01T10:58:28;4.13;;;3.70;;
19521;SDS011;9905;52.126;5.596;2023-03-01T11:00:57;4.38;;;3.97;;
19521;SDS011;9905;52.126;5.596;2023-03-01T11:03:25;3.75;;;3.55;;
19521;SDS011;9905;52.126;5.596;2023-03-01T11:05:58;4.03;;;3.70;;
19521;SDS011;9905;52.126;5.596;2023-03-01T11:08:30;3.78;;;3.58;;
19521;SDS011;9905;52.126;5.596;2023-03-01T11:11:06;4.43;;;3.90;;
19521;SDS011;9905;52.126;5.596;2023-03-01T11:13:53;4.45;;;3.72;;
19521;SDS011;9905;52.126;5.596;2023-03-01T11:16:26;3.70;;;3.50;;
19521;SDS011;9905;52.126;5.596;2023-03-01T11:18:55;4.20;;;4.00;;
19521;SDS011;9905;52.126;5.596;2023-03-01T11:21:24;4.40;;;3.97;;
19521;SDS011;9905;52.126;5.596;2023-03-01T11:23:55;4.30;;;4.00;;
19521;SDS011;9905;52.126;5.596;2023-03-01T11:26:24;3.95;;;3.75;;
19521;SDS011;9905;52.126;5.596;2023-03-01T11:28:54;3.63;;;3.42;;
19521;SDS011;9905;52.126;5.596;2023-03-01T11:31:24;3.60;;;3.40;;
19521;SDS011;9905;52.126;5.596;2023-03-01T11:33:53;4.13;;;3.85;;
19521;SDS011;9905;52.126;5.596;2023-03-01T11:36:26;3.92;;;3.72;;
19521;SDS011;9905;52.126;5.596;2023-03-01T11:38:58;4.28;;;3.97;;
19521;SDS011;9905;52.126;5.596;2023-03-01T11:41:38;4.97;;;4.18;;
19521;SDS011;9905;52.126;5.596;2023-03-01T11:44:09;4.40;;;4.00;;
19521;SDS011;9905;52.126;5.596;2023-03-01T11:46:58;4.00;;;3.75;;
19521;SDS011;9905;52.126;5.596;2023-03-01T11:49:48;3.88;;;3.67;;
19521;SDS011;9905;52.126;5.596;2023-03-01T11:52:30;4.00;;;3.80;;
19521;SDS011;9905;52.126;5.596;2023-03-01T11:55:12;3.40;;;3.20;;
19521;SDS011;9905;52.126;5.596;2023-03-01T11:58:05;3.40;;;3.20;;
19521;SDS011;9905;52.126;5.596;2023-03-01T12:00:52;4.25;;;3.58;;
19521;SDS011;9905;52.126;5.596;2023-03-01T12:03:30;4.20;;;3.90;;
19521;SDS011;9905;52.126;5.596;2023-03-01T12:06:23;3.60;;;3.38;;
19521;SDS011;9905;52.126;5.596;2023-03-01T12:08:58;3.90;;;3.70;;
19521;SDS011;9905;52.126;5.596;2023-03-01T12:11:41;4.10;;;3.85;;
19521;SDS011;9905;52.126;5.596;2023-03-01T12:14:23;4.38;;;4.07;;
19521;SDS011;9905;52.126;5.596;2023-03-01T12:20:13;3.72;;;3.42;;
19521;SDS011;9905;52.126;5.596;2023-03-01T12:22:51;3.88;;;3.55;;
19521;SDS011;9905;52.126;5.596;2023-03-01T12:25:30;3.75;;;3.45;;
19521;SDS011;9905;52.126;5.596;2023-03-01T12:28:14;6.38;;;4.03;;
19521;SDS011;9905;52.126;5.596;2023-03-01T12:31:29;4.38;;;4.18;;
19521;SDS011;9905;52.126;5.596;2023-03-01T12:34:07;3.85;;;3.55;;
19521;SDS011;9905;52.126;5.596;2023-03-01T12:36:53;4.13;;;3.80;;
19521;SDS011;9905;52.126;5.596;2023-03-01T12:39:34;4.38;;;4.18;;
19521;SDS011;9905;52.126;5.596;2023-03-01T12:42:10;4.82;;;4.43;;
19521;SDS011;9905;52.126;5.596;2023-03-01T12:44:49;4.07;;;3.78;;
19521;SDS011;9905;52.126;5.596;2023-03-01T12:47:31;3.85;;;3.65;;
19521;SDS011;9905;52.126;5.596;2023-03-01T12:50:11;4.40;;;4.00;;
19521;SDS011;9905;52.126;5.596;2023-03-01T12:52:43;3.92;;;3.65;;
19521;SDS011;9905;52.126;5.596;2023-03-01T12:55:18;4.13;;;3.90;;
19521;SDS011;9905;52.126;5.596;2023-03-01T12:57:56;4.18;;;3.97;;
19521;SDS011;9905;52.126;5.596;2023-03-01T13:00:37;3.90;;;3.60;;
19521;SDS011;9905;52.126;5.596;2023-03-01T13:03:12;3.58;;;3.38;;
19521;SDS011;9905;52.126;5.596;2023-03-01T13:05:48;3.58;;;3.38;;
19521;SDS011;9905;52.126;5.596;2023-03-01T13:08:29;4.22;;;3.20;;
19521;SDS011;9905;52.126;5.596;2023-03-01T13:11:03;4.47;;;3.03;;
19521;SDS011;9905;52.126;5.596;2023-03-01T13:13:31;3.78;;;3.58;;
19521;SDS011;9905;52.126;5.596;2023-03-01T13:16:11;3.70;;;3.42;;
19521;SDS011;9905;52.126;5.596;2023-03-01T13:18:47;3.90;;;3.47;;
19521;SDS011;9905;52.126;5.596;2023-03-01T13:21:14;3.88;;;3.60;;
19521;SDS011;9905;52.126;5.596;2023-03-01T13:23:56;3.90;;;3.60;;
19521;SDS011;9905;52.126;5.596;2023-03-01T13:26:23;4.47;;;4.00;;
19521;SDS011;9905;52.126;5.596;2023-03-01T13:28:50;3.75;;;3.55;;
19521;SDS011;9905;52.126;5.596;2023-03-01T13:37:18;4.00;;;3.80;;
19521;SDS011;9905;52.126;5.596;2023-03-01T13:39:47;3.40;;;3.20;;
19521;SDS011;9905;52.126;5.596;2023-03-01T13:42:31;5.20;;;3.60;;
19521;SDS011;9905;52.126;5.596;2023-03-01T13:45:04;3.53;;;3.25;;
19521;SDS011;9905;52.126;5.596;2023-03-01T13:47:57;3.60;;;3.25;;
19521;SDS011;9905;52.126;5.596;2023-03-01T13:50:29;3.60;;;3.40;;
19521;SDS011;9905;52.126;5.596;2023-03-01T13:53:03;3.58;;;3.38;;
19521;SDS011;9905;52.126;5.596;2023-03-01T13:55:35;3.60;;;3.40;;
19521;SDS011;9905;52.126;5.596;2023-03-01T13:58:05;4.07;;;3.78;;
19521;SDS011;9905;52.126;5.596;2023-03-01T14:00:46;3.65;;;3.45;;
19521;SDS011;9905;52.126;5.596;2023-03-01T14:03:14;4.22;;;3.92;;
19521;SDS011;9905;52.126;5.596;2023-03-01T14:05:56;4.00;;;3.70;;
19521;SDS011;9905;52.126;5.596;2023-03-01T14:08:26;3.65;;;3.45;;
19521;SDS011;9905;52.126;5.596;2023-03-01T14:10:56;3.70;;;3.50;;
19521;SDS011;9905;52.126;5.596;2023-03-01T14:13:45;3.60;;;3.30;;
19521;SDS011;9905;52.126;5.596;2023-03-01T14:16:24;3.65;;;3.40;;
19521;SDS011;9905;52.126;5.596;2023-03-01T14:19:07;3.60;;;3.35;;
19521;SDS011;9905;52.126;5.596;2023-03-01T14:21:44;3.33;;;3.13;;
19521;SDS011;9905;52.126;5.596;2023-03-01T14:24:16;3.60;;;3.40;;
19521;SDS011;9905;52.126;5.596;2023-03-01T14:26:44;3.60;;;3.40;;
19521;SDS011;9905;52.126;5.596;2023-03-01T14:32:07;3.50;;;3.30;;
19521;SDS011;9905;52.126;5.596;2023-03-01T14:34:35;3.70;;;3.40;;
19521;SDS011;9905;52.126;5.596;2023-03-01T14:37:15;3.80;;;3.60;;
19521;SDS011;9905;52.126;5.596;2023-03-01T14:39:45;3.75;;;3.53;;
19521;SDS011;9905;52.126;5.596;2023-03-01T14:42:12;3.53;;;3.33;;
19521;SDS011;9905;52.126;5.596;2023-03-01T14:44:41;4.22;;;3.45;;
19521;SDS011;9905;52.126;5.596;2023-03-01T14:47:11;3.70;;;3.40;;
19521;SDS011;9905;52.126;5.596;2023-03-01T14:49:40;3.90;;;3.60;;
19521;SDS011;9905;52.126;5.596;2023-03-01T14:52:16;3.95;;;3.75;;
19521;SDS011;9905;52.126;5.596;2023-03-01T14:54:46;4.28;;;3.97;;
19521;SDS011;9905;52.126;5.596;2023-03-01T14:57:15;4.00;;;3.80;;
19521;SDS011;9905;52.126;5.596;2023-03-01T14:59:43;3.53;;;3.33;;
19521;SDS011;9905;52.126;5.596;2023-03-01T15:02:11;4.20;;;3.92;;
19521;SDS011;9905;52.126;5.596;2023-03-01T15:04:42;3.58;;;3.38;;
19521;SDS011;9905;52.126;5.596;2023-03-01T15:07:11;3.83;;;3.63;;
19521;SDS011;9905;52.126;5.596;2023-03-01T15:09:40;3.85;;;3.65;;
19521;SDS011;9905;52.126;5.596;2023-03-01T15:18:00;3.85;;;3.65;;
19521;SDS011;9905;52.126;5.596;2023-03-01T15:20:29;3.78;;;3.55;;
19521;SDS011;9905;52.126;5.596;2023-03-01T15:23:00;3.83;;;3.63;;
19521;SDS011;9905;52.126;5.596;2023-03-01T15:25:30;3.47;;;3.28;;
19521;SDS011;9905;52.126;5.596;2023-03-01T15:27:58;3.10;;;2.97;;
19521;SDS011;9905;52.126;5.596;2023-03-01T15:30:27;3.55;;;3.35;;
19521;SDS011;9905;52.126;5.596;2023-03-01T15:35:46;3.67;;;3.50;;
19521;SDS011;9905;52.126;5.596;2023-03-01T15:38:35;4.18;;;3.92;;